Time;durP1;ratioP1;P1;durP2;ratioP2;P2;SDS_P1;SDS_P2;PMS_P1;PMS_P2;Temp;Humidity;BMP_temperature;BMP_pressure;BME280_temperature;BME280_humidity;BME280_pressure;Samples;Min_cycle;Max_cycle;Signal;HPM_P1;HPM_P2
2021/03/18 00:00:31;;;;;;;2.80;1.40;;;3.90;99.90;;;;;;5031910;28;20202;-71
2021/03/18 00:02:58;;;;;;;1.50;1.30;;;3.70;99.90;;;;;;5032128;28;20285;-71
2021/03/18 00:05:24;;;;;;;2.57;1.17;;;3.40;99.90;;;;;;5025103;28;20195;-71
2021/03/18 00:07:53;;;;;;;12.17;3.43;;;3.10;99.90;;;;;;5026734;28;20297;-72
2021/03/18 00:10:20;;;;;;;10.53;2.87;;;3.00;99.90;;;;;;5018822;28;20379;-71
2021/03/18 00:12:47;;;;;;;5.50;1.80;;;2.90;99.90;;;;;;5031684;28;20277;-71
2021/03/18 00:15:15;;;;;;;2.60;1.43;;;2.90;99.90;;;;;;5030509;28;20281;-71
2021/03/18 00:17:42;;;;;;;1.10;1.00;;;2.90;99.90;;;;;;5031714;28;20207;-72
2021/03/18 00:20:11;;;;;;;1.77;1.20;;;2.90;99.90;;;;;;5030136;28;20209;-71
2021/03/18 00:22:40;;;;;;;1.97;1.10;;;2.80;99.90;;;;;;5031780;28;20264;-71
2021/03/18 00:25:10;;;;;;;0.93;0.87;;;2.80;99.90;;;;;;5018727;28;20265;-71
2021/03/18 00:27:37;;;;;;;44.17;4.23;;;2.80;99.90;;;;;;5031789;28;20256;-71
2021/03/18 00:30:06;;;;;;;33.23;4.70;;;2.80;99.90;;;;;;5019486;28;20565;-73
2021/03/18 00:32:33;;;;;;;12.47;2.63;;;2.90;99.90;;;;;;5035773;28;20693;-70
2021/03/18 00:35:00;;;;;;;5.13;1.60;;;3.00;99.90;;;;;;5021702;28;20325;-71
2021/03/18 00:37:27;;;;;;;1.63;1.07;;;3.00;99.90;;;;;;5013395;28;20210;-70
2021/03/18 00:39:54;;;;;;;2.00;1.40;;;3.10;99.90;;;;;;5031658;28;20268;-71
2021/03/18 00:42:22;;;;;;;1.87;1.50;;;3.10;99.90;;;;;;5031449;28;20669;-71
2021/03/18 00:44:50;;;;;;;8.70;4.10;;;3.20;99.90;;;;;;5029697;28;20272;-71
2021/03/18 00:47:17;;;;;;;15.53;5.70;;;3.20;99.90;;;;;;5029890;28;20694;-71
2021/03/18 00:49:44;;;;;;;18.43;6.53;;;3.20;99.90;;;;;;5030547;28;20202;-71
2021/03/18 00:52:12;;;;;;;34.97;9.03;;;3.10;99.90;;;;;;5013093;28;20225;-71
2021/03/18 00:54:38;;;;;;;18.53;6.00;;;3.10;99.90;;;;;;5029941;28;20222;-71
2021/03/18 00:57:06;;;;;;;16.73;5.80;;;3.00;99.90;;;;;;5029556;28;20202;-71
2021/03/18 00:59:34;;;;;;;8.33;4.50;;;3.00;99.90;;;;;;5029775;28;20589;-72
2021/03/18 01:02:01;;;;;;;7.73;3.57;;;2.90;99.90;;;;;;5029819;28;20202;-72
2021/03/18 01:04:28;;;;;;;7.83;3.33;;;2.80;99.90;;;;;;5029731;28;20229;-72
2021/03/18 01:06:56;;;;;;;5.63;2.80;;;2.80;99.90;;;;;;5029400;28;20209;-72
2021/03/18 01:09:23;;;;;;;6.37;2.80;;;2.80;99.90;;;;;;5013433;28;20254;-72
2021/03/18 01:11:49;;;;;;;5.43;2.53;;;2.70;99.90;;;;;;5030143;28;20225;-72
2021/03/18 01:14:16;;;;;;;4.63;2.17;;;2.70;99.90;;;;;;5030686;28;20285;-72
2021/03/18 01:16:47;;;;;;;5.30;2.07;;;2.70;99.90;;;;;;5029367;28;20646;-72
2021/03/18 01:19:15;;;;;;;4.67;1.97;;;2.80;99.90;;;;;;4997403;28;20567;-72
2021/03/18 01:21:43;;;;;;;2.33;1.60;;;2.80;99.90;;;;;;5011580;28;20206;-72
2021/03/18 01:24:12;;;;;;;3.77;1.50;;;2.80;99.90;;;;;;5030392;28;20574;-72
2021/03/18 01:26:39;;;;;;;1.67;1.30;;;2.90;99.90;;;;;;5030630;28;20283;-72
2021/03/18 01:29:06;;;;;;;2.40;1.60;;;2.80;99.90;;;;;;5028860;28;20202;-72
2021/03/18 01:31:34;;;;;;;3.30;1.90;;;3.00;99.90;;;;;;5031328;28;20207;-72
2021/03/18 01:34:03;;;;;;;35.20;6.90;;;3.00;99.90;;;;;;5032695;28;20199;-72
2021/03/18 01:36:31;;;;;;;14.57;3.87;;;2.90;99.90;;;;;;5030773;28;20194;-72
2021/03/18 01:38:58;;;;;;;12.00;3.27;;;2.90;99.90;;;;;;5028688;28;20562;-72
2021/03/18 01:41:28;;;;;;;4.50;1.87;;;2.90;99.90;;;;;;5030491;28;20195;-72
2021/03/18 01:43:55;;;;;;;3.03;1.60;;;2.90;99.90;;;;;;5028103;28;20268;-71
2021/03/18 01:46:23;;;;;;;3.70;1.30;;;2.90;99.90;;;;;;5031222;28;20194;-72
2021/03/18 01:48:52;;;;;;;1.13;0.90;;;2.90;99.90;;;;;;5029906;28;20203;-72
2021/03/18 01:51:24;;;;;;;2.13;1.20;;;2.80;99.90;;;;;;5029764;28;20194;-73
2021/03/18 01:53:50;;;;;;;1.77;1.47;;;2.90;99.90;;;;;;5029528;28;20655;-72
2021/03/18 01:56:19;;;;;;;1.27;1.07;;;2.80;99.90;;;;;;5030990;28;20190;-72
2021/03/18 01:58:46;;;;;;;1.10;0.90;;;2.80;99.90;;;;;;5012629;28;20283;-72
2021/03/18 02:01:18;;;;;;;1.17;1.00;;;2.80;99.90;;;;;;5029940;28;20565;-72
2021/03/18 02:03:44;;;;;;;1.90;1.00;;;2.80;99.90;;;;;;5000377;28;20214;-72
2021/03/18 02:06:11;;;;;;;1.00;0.80;;;2.80;99.90;;;;;;5030130;28;20198;-72
2021/03/18 02:08:39;;;;;;;0.80;0.80;;;2.70;99.90;;;;;;5026181;28;20203;-72
2021/03/18 02:11:06;;;;;;;1.10;1.00;;;2.70;99.90;;;;;;5030636;28;20198;-71
2021/03/18 02:13:33;;;;;;;0.83;0.83;;;2.70;99.90;;;;;;5027394;28;20289;-72
2021/03/18 02:16:03;;;;;;;0.83;0.83;;;2.70;99.90;;;;;;5030644;28;20245;-70
2021/03/18 02:18:43;;;;;;;0.70;0.70;;;2.60;99.90;;;;;;5030130;28;20201;-72
2021/03/18 02:21:44;;;;;;;1.10;1.00;;;2.60;99.90;;;;;;5030384;28;20194;-72
2021/03/18 02:24:46;;;;;;;1.13;1.07;;;2.60;99.90;;;;;;5029944;28;20348;-70
2021/03/18 02:27:58;;;;;;;1.43;1.10;;;2.60;99.90;;;;;;5022952;28;20206;-71
2021/03/18 02:30:53;;;;;;;1.13;0.90;;;2.50;99.90;;;;;;5022580;28;20202;-71
2021/03/18 02:33:59;;;;;;;0.70;0.70;;;2.50;99.90;;;;;;5033033;28;20585;-71
2021/03/18 02:36:34;;;;;;;2.70;1.00;;;2.50;99.90;;;;;;5027874;28;20546;-71
2021/03/18 02:39:05;;;;;;;2.00;0.90;;;2.50;99.90;;;;;;5012564;28;20260;-71
2021/03/18 02:41:38;;;;;;;0.97;0.90;;;2.50;99.90;;;;;;5041343;28;20415;-71
2021/03/18 02:44:09;;;;;;;1.53;0.80;;;2.50;99.90;;;;;;5029647;28;20618;-72
2021/03/18 02:46:39;;;;;;;0.80;0.80;;;2.40;99.90;;;;;;5020888;28;20198;-72
2021/03/18 02:49:07;;;;;;;0.63;0.63;;;2.40;99.90;;;;;;5029376;28;20319;-71
2021/03/18 02:51:38;;;;;;;1.03;0.93;;;2.40;99.90;;;;;;5030817;28;20240;-71
2021/03/18 02:54:07;;;;;;;0.80;0.80;;;2.40;99.90;;;;;;5029837;28;20655;-72
2021/03/18 02:56:36;;;;;;;0.80;0.80;;;2.40;99.90;;;;;;5015717;28;20203;-72
2021/03/18 02:59:04;;;;;;;0.80;0.70;;;2.30;99.90;;;;;;5031720;28;20217;-71
2021/03/18 03:01:31;;;;;;;0.80;0.80;;;2.30;99.90;;;;;;5030555;28;20285;-71
2021/03/18 03:04:00;;;;;;;0.73;0.73;;;2.30;99.90;;;;;;5032903;28;20214;-71
2021/03/18 03:06:30;;;;;;;0.70;0.70;;;2.30;99.90;;;;;;5032705;28;20198;-71
2021/03/18 03:09:00;;;;;;;0.70;0.70;;;2.30;99.90;;;;;;5028399;28;20610;-71
2021/03/18 03:11:27;;;;;;;0.80;0.80;;;2.30;99.90;;;;;;5033926;28;20210;-71
2021/03/18 03:13:56;;;;;;;0.70;0.70;;;2.30;99.90;;;;;;5031836;28;20681;-71
2021/03/18 03:16:25;;;;;;;1.33;0.87;;;2.30;99.90;;;;;;5034272;28;20619;-71
2021/03/18 03:18:53;;;;;;;1.10;1.00;;;2.30;99.90;;;;;;5015786;28;20202;-71
2021/03/18 03:21:22;;;;;;;0.60;0.60;;;2.30;99.90;;;;;;5031758;28;20203;-71
2021/03/18 03:23:50;;;;;;;1.07;0.97;;;2.30;99.90;;;;;;5032258;28;20238;-72
2021/03/18 03:26:21;;;;;;;0.70;0.70;;;2.20;99.90;;;;;;5031674;28;20233;-72
2021/03/18 03:28:48;;;;;;;0.90;0.90;;;2.20;99.90;;;;;;5031688;28;20211;-72
2021/03/18 03:31:16;;;;;;;2.10;0.90;;;2.20;99.90;;;;;;5016802;28;20206;-72
2021/03/18 03:33:44;;;;;;;1.00;0.90;;;2.20;99.90;;;;;;5037697;28;20201;-71
2021/03/18 03:36:11;;;;;;;1.00;1.00;;;2.30;99.90;;;;;;5014935;28;20578;-71
2021/03/18 03:38:39;;;;;;;1.47;0.80;;;2.30;99.90;;;;;;5030317;28;20206;-72
2021/03/18 03:41:06;;;;;;;0.73;0.73;;;2.30;99.90;;;;;;5031886;28;20206;-72
2021/03/18 03:43:34;;;;;;;0.80;0.80;;;2.40;99.90;;;;;;4997776;28;20269;-72
2021/03/18 03:46:02;;;;;;;0.77;0.77;;;2.40;99.90;;;;;;5031421;28;20225;-71
2021/03/18 03:48:30;;;;;;;1.00;1.00;;;2.50;99.90;;;;;;5030756;28;20245;-71
2021/03/18 03:51:00;;;;;;;0.83;0.83;;;2.50;99.90;;;;;;5027270;28;20202;-71
2021/03/18 03:53:35;;;;;;;0.80;0.80;;;2.60;99.90;;;;;;5029982;28;20257;-71
2021/03/18 03:56:05;;;;;;;0.73;0.70;;;2.60;99.90;;;;;;5000055;28;20214;-71
2021/03/18 03:58:37;;;;;;;0.97;0.90;;;2.70;99.90;;;;;;5030973;28;20732;-71
2021/03/18 04:01:06;;;;;;;0.80;0.80;;;2.70;99.90;;;;;;5032821;28;20283;-72
2021/03/18 04:03:36;;;;;;;0.70;0.70;;;2.70;99.90;;;;;;5030452;28;20294;-72
2021/03/18 04:06:04;;;;;;;0.77;0.77;;;2.00;99.90;;;;;;5030836;28;20217;-72
2021/03/18 04:08:33;;;;;;;0.70;0.70;;;2.80;99.90;;;;;;5013029;28;20190;-72
2021/03/18 04:11:01;;;;;;;0.87;0.63;;;2.80;99.90;;;;;;5031050;28;20285;-72
2021/03/18 04:13:30;;;;;;;0.90;0.90;;;2.80;99.90;;;;;;5029061;28;20684;-72
2021/03/18 04:16:00;;;;;;;0.67;0.67;;;2.80;99.90;;;;;;5031850;28;20665;-71
2021/03/18 04:18:32;;;;;;;0.77;0.77;;;2.80;99.90;;;;;;5031206;28;20547;-71
2021/03/18 04:20:59;;;;;;;1.20;0.93;;;2.80;99.90;;;;;;5031781;28;20264;-72
2021/03/18 04:23:29;;;;;;;0.90;0.90;;;2.90;99.90;;;;;;5030750;28;20292;-72
2021/03/18 04:25:58;;;;;;;1.23;1.10;;;2.90;99.90;;;;;;5014865;28;20804;-72
2021/03/18 04:28:27;;;;;;;0.93;0.87;;;2.90;99.90;;;;;;5019945;28;20201;-72
2021/03/18 04:30:54;;;;;;;2.63;1.43;;;3.00;99.90;;;;;;5032365;28;20190;-72
2021/03/18 04:33:23;;;;;;;1.67;1.27;;;3.00;99.90;;;;;;5035594;28;20634;-72
2021/03/18 04:35:50;;;;;;;1.40;1.30;;;3.00;99.90;;;;;;5030440;28;20674;-72
2021/03/18 04:38:18;;;;;;;1.67;1.57;;;3.00;99.90;;;;;;5031115;28;20592;-72
2021/03/18 04:40:46;;;;;;;2.80;1.40;;;3.00;99.90;;;;;;5032333;28;20221;-72
2021/03/18 04:43:13;;;;;;;1.23;1.20;;;3.10;99.90;;;;;;5030813;28;20194;-72
2021/03/18 04:45:41;;;;;;;2.17;1.73;;;3.10;99.90;;;;;;5014178;28;20285;-72
2021/03/18 04:48:10;;;;;;;1.90;1.57;;;3.10;99.90;;;;;;5030122;28;20573;-72
2021/03/18 04:50:40;;;;;;;1.50;1.40;;;3.10;99.90;;;;;;5029191;28;20207;-71
2021/03/18 04:53:07;;;;;;;2.00;1.37;;;3.20;99.90;;;;;;5029309;28;20224;-71
2021/03/18 04:55:34;;;;;;;1.30;1.20;;;3.20;99.90;;;;;;5031485;28;20221;-71
2021/03/18 04:58:03;;;;;;;1.97;1.40;;;3.20;99.90;;;;;;5029635;28;20190;-71
2021/03/18 05:00:31;;;;;;;4.37;1.73;;;3.30;99.90;;;;;;5012706;28;20229;-71
2021/03/18 05:03:01;;;;;;;2.57;1.93;;;3.30;99.90;;;;;;5025610;28;20221;-71
2021/03/18 05:05:29;;;;;;;1.60;1.50;;;3.20;99.90;;;;;;5024338;28;20236;-71
2021/03/18 05:07:59;;;;;;;2.10;1.73;;;3.20;99.90;;;;;;5027157;28;20610;-71
2021/03/18 05:10:30;;;;;;;1.80;1.67;;;3.20;99.90;;;;;;5019267;28;20201;-71
2021/03/18 05:13:00;;;;;;;1.87;1.67;;;3.20;99.90;;;;;;5029134;28;20202;-71
2021/03/18 05:15:27;;;;;;;1.97;1.80;;;3.20;99.90;;;;;;5012793;28;20203;-71
2021/03/18 05:17:55;;;;;;;2.07;1.70;;;3.20;99.90;;;;;;5030175;28;20197;-71
2021/03/18 05:20:23;;;;;;;2.10;1.63;;;3.20;99.90;;;;;;5029365;28;20186;-72
2021/03/18 05:22:51;;;;;;;1.50;1.40;;;3.20;99.90;;;;;;5029079;28;20693;-71
2021/03/18 05:25:22;;;;;;;1.40;1.30;;;3.20;99.90;;;;;;5028907;28;20690;-72
2021/03/18 05:27:49;;;;;;;2.10;1.53;;;3.20;99.90;;;;;;5029985;28;20210;-72
2021/03/18 05:30:16;;;;;;;1.70;1.60;;;3.20;99.90;;;;;;5013004;28;20506;-72
2021/03/18 05:32:44;;;;;;;1.83;1.40;;;3.20;99.90;;;;;;5035043;28;20201;-71
2021/03/18 05:35:13;;;;;;;1.50;1.40;;;3.20;99.90;;;;;;5028828;28;20232;-71
2021/03/18 05:37:40;;;;;;;3.20;1.20;;;3.30;99.90;;;;;;5029115;28;20288;-71
2021/03/18 05:40:11;;;;;;;1.00;1.00;;;3.30;99.90;;;;;;5030499;28;20195;-71
2021/03/18 05:42:39;;;;;;;1.57;1.37;;;3.40;99.90;;;;;;5030671;28;20214;-72
2021/03/18 05:45:09;;;;;;;1.93;1.57;;;3.50;99.90;;;;;;5029236;28;20233;-71
2021/03/18 05:47:36;;;;;;;1.60;1.50;;;3.60;99.90;;;;;;5029406;28;20206;-72
2021/03/18 05:50:06;;;;;;;2.30;1.50;;;3.60;99.90;;;;;;5028996;28;20198;-72
2021/03/18 05:52:34;;;;;;;2.43;1.37;;;3.80;99.90;;;;;;5003027;28;20733;-72
2021/03/18 05:55:02;;;;;;;1.83;1.67;;;3.90;99.90;;;;;;5030205;28;20277;-70
2021/03/18 05:57:29;;;;;;;1.83;1.70;;;3.90;99.90;;;;;;5029224;28;20233;-71
2021/03/18 05:59:57;;;;;;;1.97;1.70;;;4.00;99.90;;;;;;5029983;28;20201;-71
2021/03/18 06:02:24;;;;;;;1.60;1.50;;;4.00;99.90;;;;;;5028880;28;20198;-71
2021/03/18 06:04:51;;;;;;;3.33;1.90;;;4.10;99.90;;;;;;5030134;28;20214;-71
2021/03/18 06:07:18;;;;;;;3.33;2.27;;;4.00;99.90;;;;;;5029856;28;20576;-71
2021/03/18 06:09:45;;;;;;;1.70;1.60;;;4.10;99.90;;;;;;5027403;28;20214;-72
2021/03/18 06:12:12;;;;;;;2.10;1.80;;;4.00;99.90;;;;;;5030298;28;20197;-72
2021/03/18 06:14:39;;;;;;;1.40;1.23;;;4.00;99.90;;;;;;5028021;28;20221;-71
2021/03/18 06:17:08;;;;;;;1.80;1.70;;;4.10;99.90;;;;;;5012703;28;20216;-70
2021/03/18 06:19:35;;;;;;;1.87;1.60;;;4.10;99.90;;;;;;5028209;28;20286;-71
2021/03/18 06:22:01;;;;;;;2.33;1.60;;;4.20;99.90;;;;;;5028334;28;20222;-71
2021/03/18 06:24:29;;;;;;;2.47;1.80;;;4.20;99.90;;;;;;5028160;28;20666;-71
2021/03/18 06:26:58;;;;;;;4.07;1.90;;;4.10;99.90;;;;;;5028739;28;20213;-72
2021/03/18 06:29:35;;;;;;;1.97;1.77;;;4.10;99.90;;;;;;5029843;28;20301;-72
2021/03/18 06:32:17;;;;;;;3.13;1.60;;;4.10;99.90;;;;;;5035485;28;20213;-72
2021/03/18 06:34:46;;;;;;;4.40;1.63;;;4.00;99.90;;;;;;5029349;28;20618;-71
2021/03/18 06:37:30;;;;;;;2.50;1.90;;;4.00;99.90;;;;;;5033291;28;20198;-72
2021/03/18 06:39:59;;;;;;;4.70;1.43;;;4.10;99.90;;;;;;5031690;28;20263;-72
2021/03/18 06:42:26;;;;;;;2.60;1.60;;;4.10;99.90;;;;;;5031966;28;20202;-72
2021/03/18 06:45:08;;;;;;;2.10;1.90;;;4.30;99.90;;;;;;5033025;28;20574;-72
2021/03/18 06:47:45;;;;;;;1.83;1.30;;;4.30;99.90;;;;;;5016648;28;20658;-72
2021/03/18 06:50:13;;;;;;;1.93;1.70;;;4.50;99.90;;;;;;5033371;28;20198;-72
2021/03/18 06:52:41;;;;;;;3.60;1.60;;;4.80;99.90;;;;;;5032225;28;20675;-70
2021/03/18 06:55:10;;;;;;;1.97;1.77;;;5.10;99.90;;;;;;5031587;28;20297;-71
2021/03/18 06:57:37;;;;;;;2.10;1.53;;;5.50;99.90;;;;;;5032009;28;20217;-70
2021/03/18 07:00:07;;;;;;;2.13;1.67;;;5.80;99.90;;;;;;5031639;28;20212;-71
2021/03/18 07:02:40;;;;;;;2.13;1.80;;;6.20;99.90;;;;;;5032334;28;20198;-71
2021/03/18 07:05:18;;;;;;;4.13;2.10;;;6.60;99.90;;;;;;5032611;28;20257;-70
2021/03/18 07:07:47;;;;;;;5.80;1.63;;;7.10;99.90;;;;;;5030535;28;20222;-71
2021/03/18 07:10:15;;;;;;;4.00;1.50;;;7.60;99.90;;;;;;5018885;28;20201;-70
2021/03/18 07:12:42;;;;;;;2.00;1.50;;;8.10;99.90;;;;;;5031449;28;20595;-71
2021/03/18 07:15:19;;;;;;;2.37;1.80;;;8.70;99.90;;;;;;5011855;28;20285;-70
2021/03/18 07:17:46;;;;;;;2.17;1.57;;;9.20;99.90;;;;;;5028247;28;20558;-71
2021/03/18 07:20:20;;;;;;;1.57;1.47;;;9.60;97.30;;;;;;5031700;28;20286;-70
2021/03/18 07:22:49;;;;;;;1.90;1.80;;;10.20;97.00;;;;;;5031141;28;20198;-72
2021/03/18 07:25:18;;;;;;;1.90;1.80;;;10.90;94.50;;;;;;5031508;28;20687;-70
2021/03/18 07:27:48;;;;;;;1.60;1.50;;;11.40;88.30;;;;;;5030643;28;20724;-70
2021/03/18 07:30:25;;;;;;;2.30;1.53;;;11.80;79.50;;;;;;5032269;28;20206;-71
2021/03/18 07:32:52;;;;;;;2.00;1.37;;;11.90;76.20;;;;;;5028347;28;20211;-71
2021/03/18 07:35:20;;;;;;;1.57;1.30;;;11.60;73.50;;;;;;5030762;28;20248;-71
2021/03/18 07:37:47;;;;;;;2.90;1.60;;;11.40;71.90;;;;;;5032156;28;20729;-71
2021/03/18 07:40:14;;;;;;;3.17;1.23;;;11.30;71.90;;;;;;5030556;28;20284;-71
2021/03/18 07:42:43;;;;;;;5.83;2.03;;;11.30;74.30;;;;;;5030537;28;20233;-69
2021/03/18 07:45:10;;;;;;;1.40;1.30;;;11.30;72.00;;;;;;5026508;28;20212;-70
2021/03/18 07:47:41;;;;;;;4.43;1.27;;;11.10;70.80;;;;;;5026273;28;20199;-70
2021/03/18 07:50:12;;;;;;;2.27;1.30;;;11.00;71.40;;;;;;5008396;28;20204;-71
2021/03/18 07:52:44;;;;;;;1.97;1.33;;;11.00;72.40;;;;;;5020756;28;20561;-72
2021/03/18 07:55:15;;;;;;;1.80;1.40;;;10.80;71.20;;;;;;5026130;28;20663;-71
2021/03/18 07:57:43;;;;;;;2.10;1.40;;;10.70;70.80;;;;;;5018525;28;20209;-70
2021/03/18 08:00:12;;;;;;;1.67;1.30;;;11.10;70.60;;;;;;5026615;28;20205;-70
2021/03/18 08:02:39;;;;;;;1.27;1.10;;;12.20;71.10;;;;;;5027449;28;20213;-71
2021/03/18 08:05:07;;;;;;;1.57;1.20;;;13.50;68.80;;;;;;5027144;28;20219;-71
2021/03/18 08:07:46;;;;;;;1.90;1.57;;;14.20;65.40;;;;;;5027614;28;20716;-71
2021/03/18 08:10:14;;;;;;;2.07;1.33;;;13.80;59.20;;;;;;4993713;28;20329;-71
2021/03/18 08:13:00;;;;;;;1.43;1.30;;;13.00;59.60;;;;;;5024669;28;20209;-70
2021/03/18 08:15:33;;;;;;;5.40;1.73;;;12.10;60.90;;;;;;5020608;28;20192;-71
2021/03/18 08:18:31;;;;;;;2.33;1.50;;;11.50;61.90;;;;;;5028532;28;20229;-71
2021/03/18 08:21:02;;;;;;;2.23;1.13;;;10.90;64.30;;;;;;5010997;28;20204;-70
2021/03/18 08:23:51;;;;;;;3.47;1.63;;;10.50;66.50;;;;;;5024004;28;20237;-70
2021/03/18 08:26:49;;;;;;;4.10;1.60;;;10.20;67.40;;;;;;5026494;28;20716;-73
2021/03/18 08:29:26;;;;;;;2.90;1.73;;;9.80;68.50;;;;;;5025647;28;20200;-73
2021/03/18 08:32:00;;;;;;;2.50;2.10;;;9.40;68.60;;;;;;5025736;28;20289;-72
2021/03/18 08:35:01;;;;;;;3.00;1.50;;;9.00;69.50;;;;;;5023548;28;20570;-72
2021/03/18 08:37:41;;;;;;;2.37;1.30;;;9.40;71.10;;;;;;5024103;28;20211;-73
2021/03/18 08:40:26;;;;;;;2.20;1.50;;;8.50;72.20;;;;;;5024880;28;20204;-70
2021/03/18 08:42:59;;;;;;;3.20;1.80;;;8.40;73.20;;;;;;5023632;28;20276;-71
2021/03/18 08:45:40;;;;;;;2.33;1.53;;;8.30;73.50;;;;;;5023988;28;20209;-70
2021/03/18 08:48:13;;;;;;;4.17;1.80;;;8.20;73.80;;;;;;5025099;28;20580;-70
2021/03/18 08:50:58;;;;;;;3.40;1.50;;;8.20;74.10;;;;;;4994367;28;20197;-72
2021/03/18 08:53:31;;;;;;;2.90;1.53;;;8.10;74.40;;;;;;5022338;28;20696;-71
2021/03/18 08:55:59;;;;;;;2.50;2.03;;;7.90;75.10;;;;;;5027969;28;20263;-72
2021/03/18 08:58:26;;;;;;;3.63;1.93;;;7.90;76.00;;;;;;5024681;28;20198;-71
2021/03/18 09:00:52;;;;;;;5.23;2.10;;;7.80;76.40;;;;;;5026888;28;20207;-71
2021/03/18 09:03:21;;;;;;;14.27;2.93;;;7.60;76.50;;;;;;5022555;28;20204;-71
2021/03/18 09:05:52;;;;;;;11.37;2.97;;;7.50;76.90;;;;;;5025586;28;20680;-72
2021/03/18 09:08:25;;;;;;;9.30;1.97;;;7.40;77.60;;;;;;5022846;28;20212;-70
2021/03/18 09:10:52;;;;;;;5.50;2.00;;;7.40;77.60;;;;;;5026922;28;20726;-72
2021/03/18 09:13:21;;;;;;;2.93;1.60;;;7.30;78.00;;;;;;5024422;28;20198;-71
2021/03/18 09:15:49;;;;;;;7.60;1.90;;;7.30;78.30;;;;;;5026401;28;20209;-72
2021/03/18 09:18:19;;;;;;;20.60;4.00;;;7.40;78.70;;;;;;5007782;28;20239;-71
2021/03/18 09:20:50;;;;;;;22.10;3.77;;;7.40;79.20;;;;;;5026484;28;20202;-71
2021/03/18 09:23:19;;;;;;;10.73;2.53;;;7.40;78.80;;;;;;5025088;28;20299;-72
2021/03/18 09:25:48;;;;;;;2.43;1.40;;;7.50;78.60;;;;;;5027278;28;20222;-71
2021/03/18 09:28:16;;;;;;;4.73;1.53;;;7.80;77.50;;;;;;5026270;28;20194;-72
2021/03/18 09:30:45;;;;;;;4.03;1.63;;;7.80;76.00;;;;;;5009394;28;20317;-71
2021/03/18 09:33:21;;;;;;;2.43;1.20;;;8.20;75.50;;;;;;5027956;28;20210;-72
2021/03/18 09:35:48;;;;;;;3.87;1.50;;;8.10;73.70;;;;;;5009436;28;20661;-70
2021/03/18 09:38:21;;;;;;;3.40;1.47;;;8.00;74.50;;;;;;5024510;28;20216;-71
2021/03/18 09:40:49;;;;;;;5.17;1.40;;;8.00;75.20;;;;;;5026857;28;20273;-71
2021/03/18 09:43:20;;;;;;;6.23;1.60;;;7.80;75.50;;;;;;5026450;28;20198;-72
2021/03/18 09:45:59;;;;;;;2.50;1.53;;;7.70;76.10;;;;;;5008123;28;20773;-71
2021/03/18 09:48:31;;;;;;;3.47;1.40;;;7.80;77.20;;;;;;5024034;28;20265;-71
2021/03/18 09:51:09;;;;;;;4.37;1.40;;;7.80;78.00;;;;;;5023441;28;20206;-72
2021/03/18 09:53:37;;;;;;;3.33;1.77;;;7.90;78.60;;;;;;5022620;28;20658;-72
2021/03/18 09:56:07;;;;;;;1.57;1.27;;;8.30;78.00;;;;;;5023810;28;20206;-72
2021/03/18 09:58:34;;;;;;;0.97;0.93;;;8.50;77.20;;;;;;5025078;28;21041;-72
2021/03/18 10:01:14;;;;;;;3.03;1.43;;;8.60;76.90;;;;;;5008424;28;20202;-72
2021/03/18 10:03:54;;;;;;;2.20;1.30;;;8.50;77.00;;;;;;5025874;28;20229;-71
2021/03/18 10:06:26;;;;;;;1.13;1.03;;;8.40;77.00;;;;;;5029717;28;20720;-71
2021/03/18 10:08:53;;;;;;;3.73;1.33;;;8.40;76.90;;;;;;5026693;28;20190;-70
2021/03/18 10:11:23;;;;;;;6.53;1.67;;;8.30;77.40;;;;;;5027353;28;20194;-70
2021/03/18 10:13:51;;;;;;;2.73;1.40;;;8.20;77.40;;;;;;5027856;28;20573;-74
2021/03/18 10:16:19;;;;;;;2.40;1.50;;;8.10;77.10;;;;;;5026660;28;20198;-70
2021/03/18 10:18:46;;;;;;;2.37;1.00;;;8.10;76.00;;;;;;5029046;28;20230;-71
2021/03/18 10:21:15;;;;;;;2.50;1.20;;;8.50;76.30;;;;;;5026744;28;21163;-71
2021/03/18 10:23:42;;;;;;;1.13;0.93;;;9.60;74.30;;;;;;5029584;28;20670;-70
2021/03/18 10:26:09;;;;;;;1.20;1.10;;;10.50;69.30;;;;;;5022194;28;20223;-71
2021/03/18 10:28:36;;;;;;;6.70;1.13;;;11.20;67.20;;;;;;5027484;28;20309;-71
2021/03/18 10:31:06;;;;;;;7.90;1.87;;;12.50;63.70;;;;;;5029367;28;20204;-70
2021/03/18 10:33:37;;;;;;;2.50;1.23;;;14.00;60.00;;;;;;5028480;28;20684;-71
2021/03/18 10:36:07;;;;;;;2.20;1.00;;;15.20;56.70;;;;;;5028303;28;20723;-70
2021/03/18 10:38:35;;;;;;;1.50;1.23;;;16.20;54.10;;;;;;5028370;28;20320;-72
2021/03/18 10:41:06;;;;;;;0.97;0.90;;;16.90;51.90;;;;;;5029401;28;20208;-71
2021/03/18 10:43:35;;;;;;;1.00;0.80;;;17.70;51.30;;;;;;5026778;28;20729;-71
2021/03/18 10:46:05;;;;;;;2.10;1.10;;;18.10;50.50;;;;;;5025860;28;20300;-70
2021/03/18 10:48:35;;;;;;;2.80;1.17;;;18.70;47.10;;;;;;5029669;28;20194;-70
2021/03/18 10:51:07;;;;;;;1.63;1.20;;;19.30;46.40;;;;;;5027418;28;20203;-71
2021/03/18 10:53:35;;;;;;;14.80;3.33;;;19.40;45.20;;;;;;5024582;28;20196;-71
2021/03/18 10:56:04;;;;;;;18.10;3.80;;;19.40;44.50;;;;;;5031647;28;20223;-72
2021/03/18 10:58:32;;;;;;;4.73;1.40;;;19.60;44.20;;;;;;5017778;28;20632;-71
2021/03/18 11:01:00;;;;;;;10.20;2.73;;;19.60;43.10;;;;;;5029428;28;20612;-72
2021/03/18 11:03:29;;;;;;;9.60;2.20;;;19.50;42.60;;;;;;5027349;28;20249;-72
2021/03/18 11:05:56;;;;;;;10.43;2.40;;;19.30;42.40;;;;;;5025085;28;20230;-72
2021/03/18 11:08:29;;;;;;;7.77;1.20;;;19.60;43.00;;;;;;5025512;28;20257;-73
2021/03/18 11:10:56;;;;;;;1.90;1.00;;;20.00;42.40;;;;;;5020669;28;20600;-71
2021/03/18 11:13:25;;;;;;;2.73;0.90;;;20.20;41.40;;;;;;5012783;28;20290;-71
2021/03/18 11:16:00;;;;;;;3.30;1.33;;;19.80;41.60;;;;;;5019570;28;20273;-71
2021/03/18 11:18:35;;;;;;;1.00;1.00;;;19.50;40.50;;;;;;5025443;28;21210;-71
2021/03/18 11:21:05;;;;;;;8.40;1.20;;;18.70;41.00;;;;;;5029997;28;20257;-72
2021/03/18 11:23:35;;;;;;;0.93;0.80;;;17.60;41.10;;;;;;5028273;28;20234;-72
2021/03/18 11:26:05;;;;;;;1.77;0.93;;;16.50;41.80;;;;;;5028242;28;20217;-74
2021/03/18 11:28:33;;;;;;;1.40;0.90;;;15.90;42.60;;;;;;5025903;28;20206;-72
2021/03/18 11:31:00;;;;;;;3.40;1.03;;;15.70;42.90;;;;;;5026922;28;20212;-71
2021/03/18 11:33:32;;;;;;;2.20;0.90;;;15.70;42.70;;;;;;5028058;28;20765;-71
2021/03/18 11:36:01;;;;;;;2.50;1.07;;;15.90;42.70;;;;;;5027871;28;20602;-70
2021/03/18 11:38:28;;;;;;;1.70;0.90;;;15.70;42.80;;;;;;5029155;28;20200;-71
2021/03/18 11:40:56;;;;;;;2.47;1.00;;;14.80;43.60;;;;;;5024498;28;20199;-71
2021/03/18 11:43:24;;;;;;;2.40;1.10;;;14.10;44.80;;;;;;5026957;28;20328;-71
2021/03/18 11:45:50;;;;;;;4.07;1.23;;;13.40;45.30;;;;;;5027587;28;20531;-71
2021/03/18 11:48:18;;;;;;;1.10;1.00;;;12.80;46.10;;;;;;5025983;28;20197;-75
2021/03/18 11:50:45;;;;;;;1.83;0.93;;;12.20;47.10;;;;;;5026062;28;20209;-72
2021/03/18 11:53:11;;;;;;;1.30;1.20;;;11.80;48.30;;;;;;5027507;28;20255;-72
2021/03/18 11:55:39;;;;;;;1.03;1.03;;;11.40;49.00;;;;;;5027448;28;20195;-71
2021/03/18 11:58:07;;;;;;;1.40;1.30;;;11.10;49.70;;;;;;5027664;28;20281;-71
2021/03/18 12:00:36;;;;;;;1.40;1.03;;;10.80;50.30;;;;;;5028264;28;20631;-71
2021/03/18 12:03:04;;;;;;;1.10;1.00;;;10.60;51.00;;;;;;5027001;28;20201;-69
2021/03/18 12:05:31;;;;;;;8.40;1.30;;;10.40;51.60;;;;;;5026271;28;20217;-70
2021/03/18 12:07:58;;;;;;;5.17;1.23;;;10.20;52.10;;;;;;5026442;28;20688;-70
2021/03/18 12:10:26;;;;;;;12.23;1.17;;;10.10;52.30;;;;;;5009918;28;20210;-71
2021/03/18 12:12:53;;;;;;;5.47;1.70;;;10.10;52.40;;;;;;5027484;28;21023;-71
2021/03/18 12:15:20;;;;;;;16.17;1.97;;;10.00;52.70;;;;;;5027389;28;20184;-71
2021/03/18 12:17:47;;;;;;;7.90;1.20;;;9.80;53.60;;;;;;5025827;28;20204;-71
2021/03/18 12:20:17;;;;;;;4.33;1.10;;;9.60;53.90;;;;;;5023822;28;20198;-71
2021/03/18 12:22:46;;;;;;;1.43;1.20;;;9.40;54.50;;;;;;5008755;28;20679;-72
2021/03/18 12:25:15;;;;;;;4.67;1.20;;;9.20;55.30;;;;;;5024984;28;20198;-73
2021/03/18 12:27:42;;;;;;;6.63;1.00;;;9.10;55.90;;;;;;5008523;28;20242;-75
2021/03/18 12:30:11;;;;;;;1.43;0.80;;;8.90;56.40;;;;;;5026953;28;20683;-71
2021/03/18 12:32:39;;;;;;;2.40;0.80;;;8.90;56.90;;;;;;5028159;28;20559;-70
2021/03/18 12:35:11;;;;;;;0.90;0.70;;;8.80;57.30;;;;;;5025635;28;20250;-70
2021/03/18 12:37:37;;;;;;;1.00;0.90;;;8.70;57.90;;;;;;5024668;28;20203;-70
2021/03/18 12:40:07;;;;;;;1.57;0.90;;;8.60;58.20;;;;;;5024247;28;20252;-70
2021/03/18 12:42:34;;;;;;;0.97;0.90;;;8.60;58.40;;;;;;5026387;28;20210;-71
2021/03/18 12:45:01;;;;;;;1.40;0.90;;;8.50;58.70;;;;;;5022526;28;20246;-71
2021/03/18 12:47:28;;;;;;;3.37;1.23;;;8.50;59.30;;;;;;5028524;28;20180;-71
2021/03/18 12:49:55;;;;;;;1.63;1.10;;;8.40;59.60;;;;;;5024506;28;20199;-71
2021/03/18 12:52:22;;;;;;;4.57;1.77;;;8.30;60.10;;;;;;5025818;28;20281;-71
2021/03/18 12:54:49;;;;;;;1.10;0.97;;;8.20;60.10;;;;;;5026089;28;20261;-71
2021/03/18 12:57:15;;;;;;;1.03;0.90;;;8.00;60.10;;;;;;5023320;28;20541;-70
2021/03/18 12:59:42;;;;;;;2.53;1.10;;;8.00;60.80;;;;;;5025160;28;20202;-71
2021/03/18 13:02:09;;;;;;;0.90;0.90;;;7.90;61.50;;;;;;5026254;28;20214;-70
2021/03/18 13:04:36;;;;;;;3.70;1.10;;;7.80;61.60;;;;;;5019791;28;20222;-71
2021/03/18 13:07:04;;;;;;;1.07;0.90;;;7.70;61.80;;;;;;5026301;28;20205;-71